Bay City, TX

7:36 PM CDT on May 24, 2018 (GMT -0500)
Bay City

Weather History for KBYY - December, 2013

Change the Weather History Date:

Thursday, December 19, 2013

  Actual Average (KLBX) Record (KLBX)
Temperature  
Mean Temperature 68 °F -  
Max Temperature 77 °F 61 °F 81 °F (2008)
Min Temperature 59 °F 42 °F 33 °F (2000)
Cooling Degree Days 3    
Growing Degree Days 18 (Base 50)    
Moisture  
Dew Point 64 °F    
Average Humidity 85    
Maximum Humidity 94    
Minimum Humidity 69    
Precipitation  
Precipitation 0.02 in - - ()
Sea Level Pressure  
Sea Level Pressure 29.98 in    
Wind  
Wind Speed 9 mph (SSE)    
Max Wind Speed 25 mph    
Max Gust Speed 32 mph    
Visibility 10 miles    
Events Rain    
Averages and records for this station are not official NWS values.
T = Trace of Precipitation, MM = Missing Value Source: NWS Daily Summary

Daily Weather History Graph

Daily Weather History Graph

Search for Another Location

Airport or City:

Astronomy

Dec. 19, 2013 Rise Set
Actual Time 7:11 AM CST 5:29 PM CST
Civil Twilight 6:45 AM CST 5:55 PM CST
Nautical Twilight 6:16 AM CST 6:25 PM CST
Astronomical Twilight 5:47 AM CST 6:54 PM CST
Moon 7:46 PM CST (12/19) 8:39 AM CST (12/19)
Length of Visible Light 11h 09m
Length of Day
10h 17m
Waning Gibbous, 95% of the Moon is Illuminated
Dec 19
Waning Gibbous
Dec 25
Last Quarter
Jan 1
New
Jan 7
First Quarter
Jan 15
Full

Hourly Weather History & Observations

Time (CST) Temp. Dew Point Humidity Pressure Visibility Wind Dir Wind Speed Gust Speed Precip Events Conditions
12:15 AM 59.5 °F 55.8 °F 87% 30.11 in 10.0 mi SSE 6.9 mph - N/A   Clear
12:35 AM 59.5 °F 55.6 °F 87% 30.10 in 10.0 mi SSE 6.9 mph - N/A   Clear
12:55 AM 59.2 °F 55.2 °F 87% 30.09 in 10.0 mi SSE 8.1 mph - N/A   Clear
1:15 AM 59.2 °F 55.4 °F 87% 30.08 in 10.0 mi SSE 6.9 mph - N/A   Clear
1:35 AM 59.5 °F 55.6 °F 87% 30.07 in 10.0 mi SSE 8.1 mph - N/A   Mostly Cloudy
1:55 AM 60.3 °F 55.9 °F 86% 30.07 in 10.0 mi SSE 5.8 mph - N/A   Overcast
2:15 AM 60.1 °F 56.3 °F 87% 30.06 in 10.0 mi SSE 5.8 mph - N/A   Overcast
2:35 AM 60.6 °F 57.0 °F 88% 30.06 in 10.0 mi SSE 6.9 mph - N/A   Overcast
2:55 AM 61.2 °F 57.7 °F 88% 30.05 in 10.0 mi SSE 5.8 mph - N/A   Overcast
3:15 AM 61.7 °F 58.1 °F 88% 30.05 in 10.0 mi SSE 6.9 mph - N/A   Scattered Clouds
3:35 AM 61.9 °F 58.3 °F 88% 30.05 in 10.0 mi SSE 5.8 mph - N/A   Scattered Clouds
3:55 AM 62.1 °F 58.8 °F 89% 30.05 in 10.0 mi SSE 4.6 mph - N/A   Mostly Cloudy
4:15 AM 62.2 °F 59.0 °F 89% 30.04 in 10.0 mi SE 4.6 mph - N/A   Overcast
4:35 AM 62.8 °F 59.2 °F 88% 30.03 in 10.0 mi SSE 4.6 mph - N/A   Overcast
4:55 AM 63.5 °F 59.9 °F 88% 30.03 in 10.0 mi SE 5.8 mph - N/A   Overcast
5:15 AM 64.0 °F 60.4 °F 88% 30.02 in 10.0 mi SW 4.6 mph - N/A   Overcast
5:35 AM 63.0 °F 60.3 °F 91% 30.02 in 10.0 mi SSE 5.8 mph - N/A   Overcast
5:55 AM 64.0 °F 61.0 °F 90% 30.02 in 10.0 mi SE 4.6 mph - N/A   Overcast
6:15 AM 64.4 °F 61.3 °F 90% 30.02 in 10.0 mi SE 4.6 mph - N/A   Overcast
6:35 AM 64.4 °F 61.7 °F 91% 30.02 in 10.0 mi SSE 4.6 mph - N/A   Overcast
6:55 AM 63.9 °F 61.5 °F 92% 30.01 in 10.0 mi SE 4.6 mph - N/A   Overcast
7:15 AM 63.5 °F 61.7 °F 94% 30.01 in 10.0 mi SE 3.5 mph - N/A   Overcast
7:35 AM 64.0 °F 61.9 °F 93% 30.01 in 10.0 mi SSE 5.8 mph - N/A   Overcast
7:55 AM 64.8 °F 62.4 °F 92% 30.02 in 10.0 mi SSE 5.8 mph - N/A   Overcast
8:15 AM 65.3 °F 62.6 °F 91% 30.01 in 10.0 mi SSE 4.6 mph - N/A   Overcast
8:35 AM 66.4 °F 63.1 °F 89% 30.02 in 10.0 mi SSE 6.9 mph - N/A   Mostly Cloudy
8:55 AM 67.6 °F 64.0 °F 88% 30.03 in 10.0 mi SSE 6.9 mph - N/A   Overcast
9:15 AM 69.1 °F 64.8 °F 86% 30.03 in 10.0 mi SSE 8.1 mph - N/A   Mostly Cloudy
9:35 AM 71.8 °F 65.8 °F 81% 30.04 in 10.0 mi SSE 12.7 mph 18.4 mph N/A   Scattered Clouds
9:55 AM 74.1 °F 66.6 °F 77% 30.05 in 10.0 mi SSE 13.8 mph - N/A   Clear
10:15 AM 73.9 °F 66.2 °F 77% 30.05 in 10.0 mi South 15.0 mph - N/A   Mostly Cloudy
10:35 AM 71.4 °F 66.2 °F 84% 30.04 in 4.0 mi South 11.5 mph - 0.01 in Rain Light Rain
10:55 AM 71.4 °F 67.5 °F 87% 30.03 in 10.0 mi SSE 9.2 mph - 0.01 in   Mostly Cloudy
11:15 AM 74.1 °F 68.0 °F 81% 30.02 in 10.0 mi South 12.7 mph 27.6 mph N/A   Mostly Cloudy
11:35 AM 73.8 °F 66.7 °F 79% 30.01 in 10.0 mi SSE 13.8 mph 19.6 mph N/A   Overcast
11:55 AM 72.5 °F 67.5 °F 84% 30.00 in 10.0 mi South 11.5 mph 16.1 mph 0.01 in   Overcast
12:15 PM 75.0 °F 68.0 °F 79% 29.98 in 10.0 mi South 19.6 mph 28.8 mph N/A   Mostly Cloudy
12:35 PM 77.2 °F 67.5 °F 72% 29.97 in 10.0 mi South 18.4 mph 32.2 mph N/A   Scattered Clouds
12:55 PM 77.9 °F 66.9 °F 69% 29.96 in 10.0 mi South 25.3 mph 28.8 mph N/A   Scattered Clouds
1:15 PM 77.4 °F 66.6 °F 69% 29.95 in 10.0 mi South 23.0 mph 27.6 mph N/A   Mostly Cloudy
1:35 PM 77.4 °F 66.9 °F 70% 29.93 in 10.0 mi SSE 19.6 mph 28.8 mph N/A   Overcast
1:55 PM 76.8 °F 67.1 °F 72% 29.93 in 10.0 mi SSE 20.7 mph 28.8 mph N/A   Overcast
2:15 PM 75.0 °F 67.1 °F 76% 29.92 in 10.0 mi SSE 20.7 mph 28.8 mph N/A   Overcast
2:35 PM 74.7 °F 67.1 °F 77% 29.91 in 10.0 mi SSE 16.1 mph 24.2 mph N/A   Overcast
2:55 PM 75.7 °F 67.6 °F 76% 29.90 in 10.0 mi SSE 21.9 mph 32.2 mph N/A   Mostly Cloudy
3:15 PM 75.7 °F 67.5 °F 75% 29.90 in 10.0 mi SSE 20.7 mph 28.8 mph N/A   Overcast
3:35 PM 75.6 °F 67.5 °F 76% 29.90 in 10.0 mi SSE 20.7 mph 25.3 mph N/A   Overcast
3:55 PM 75.9 °F 67.8 °F 76% 29.90 in 10.0 mi SSE 18.4 mph 27.6 mph N/A   Mostly Cloudy
4:15 PM 75.2 °F 68.0 °F 78% 29.90 in 10.0 mi SSE 18.4 mph 25.3 mph N/A   Mostly Cloudy
4:35 PM 75.0 °F 68.0 °F 79% 29.90 in 10.0 mi SSE 15.0 mph 24.2 mph N/A   Scattered Clouds
4:55 PM 73.9 °F 68.0 °F 82% 29.91 in 10.0 mi SSE 15.0 mph - N/A   Mostly Cloudy
5:15 PM 73.0 °F 67.6 °F 83% 29.91 in 10.0 mi SSE 11.5 mph - N/A   Mostly Cloudy
5:35 PM 71.8 °F 67.5 °F 86% 29.90 in 10.0 mi SSE 10.4 mph - N/A   Mostly Cloudy
5:55 PM 71.2 °F 67.5 °F 88% 29.90 in 10.0 mi SSE 10.4 mph - N/A   Overcast
6:15 PM 71.4 °F 67.5 °F 87% 29.90 in 10.0 mi SSE 9.2 mph - N/A   Overcast
6:35 PM 71.1 °F 67.6 °F 89% 29.90 in 10.0 mi SE 6.9 mph - N/A   Overcast
6:55 PM 71.2 °F 68.0 °F 89% 29.90 in 10.0 mi SSE 9.2 mph - N/A   Overcast
7:15 PM 71.1 °F 68.0 °F 90% 29.90 in 10.0 mi SSE 9.2 mph - N/A   Overcast
7:35 PM 71.1 °F 68.0 °F 90% 29.91 in 7.0 mi SSE 9.2 mph - N/A   Overcast
7:55 PM 71.1 °F 68.2 °F 91% 29.90 in 10.0 mi SE 11.5 mph - N/A   Mostly Cloudy
8:15 PM 70.7 °F 68.0 °F 91% 29.90 in 10.0 mi SE 10.4 mph - N/A   Mostly Cloudy
8:35 PM 70.9 °F 68.0 °F 91% 29.91 in 10.0 mi SSE 9.2 mph 16.1 mph N/A   Mostly Cloudy
8:55 PM 70.3 °F 67.5 °F 91% 29.91 in 10.0 mi SSE 10.4 mph 17.3 mph N/A   Mostly Cloudy
9:15 PM 70.3 °F 67.5 °F 91% 29.92 in 7.0 mi SSE 9.2 mph - N/A   Overcast
9:35 PM 70.7 °F 68.0 °F 91% 29.92 in 7.0 mi SSE 9.2 mph - N/A   Overcast
9:55 PM 70.7 °F 68.0 °F 91% 29.92 in 7.0 mi SSE 8.1 mph - N/A   Overcast
10:15 PM 70.7 °F 68.0 °F 91% 29.92 in 7.0 mi SSE 9.2 mph - N/A   Overcast
10:35 PM 70.7 °F 68.0 °F 91% 29.92 in 7.0 mi SSE 12.7 mph - N/A   Overcast
10:55 PM 70.9 °F 68.2 °F 91% 29.91 in 7.0 mi SSE 12.7 mph - N/A   Overcast
11:15 PM 71.1 °F 68.4 °F 91% 29.91 in 7.0 mi SSE 12.7 mph - N/A   Overcast
11:35 PM 71.2 °F 68.4 °F 91% 29.90 in 7.0 mi SSE 12.7 mph 17.3 mph N/A   Overcast
11:55 PM 71.6 °F 68.7 °F 91% 29.90 in 7.0 mi SSE 12.7 mph - N/A   Mostly Cloudy